createdAt,value
2022-09-25T00:01:20.905Z,98757.80
2022-09-25T00:03:49.650Z,98752.40
2022-09-25T00:06:21.888Z,98756.60
2022-09-25T00:08:50.440Z,98743.80
2022-09-25T00:11:29.346Z,98745.60
2022-09-25T00:14:01.203Z,98745.80
2022-09-25T00:16:32.758Z,98752.20
2022-09-25T00:19:24.285Z,98748.20
2022-09-25T00:21:53.345Z,98747.20
2022-09-25T00:24:22.392Z,98744.60
2022-09-25T00:26:50.155Z,98742.60
2022-09-25T00:29:20.479Z,98743.60
2022-09-25T00:31:48.162Z,98736.20
2022-09-25T00:34:15.784Z,98736.00
2022-09-25T00:36:43.506Z,98736.00
2022-09-25T00:39:11.236Z,98735.60
2022-09-25T00:41:38.896Z,98729.40
2022-09-25T00:44:57.376Z,98730.00
2022-09-25T00:47:30.972Z,98735.40
2022-09-25T00:50:02.809Z,98736.60
2022-09-25T00:52:31.971Z,98738.20
2022-09-25T00:55:07.208Z,98734.00
2022-09-25T00:57:39.021Z,98736.40
2022-09-25T01:00:11.869Z,98740.00
2022-09-25T01:02:46.211Z,98748.60
2022-09-25T01:05:20.021Z,98745.40
2022-09-25T01:07:50.696Z,98745.20
2022-09-25T01:10:21.392Z,98738.80
2022-09-25T01:12:52.115Z,98737.40
2022-09-25T01:15:47.894Z,98729.80
2022-09-25T01:19:04.468Z,98724.60
2022-09-25T01:21:51.525Z,98726.80
2022-09-25T01:25:01.798Z,98718.60
2022-09-25T01:27:48.779Z,98717.00
2022-09-25T01:30:20.340Z,98720.80
2022-09-25T01:33:05.496Z,98726.60
2022-09-25T01:36:01.202Z,98720.80
2022-09-25T01:38:52.015Z,98720.20
2022-09-25T01:41:35.894Z,98724.80
2022-09-25T01:44:15.216Z,98726.40
2022-09-25T01:46:55.996Z,98727.00
2022-09-25T01:49:48.755Z,98727.00
2022-09-25T01:52:25.933Z,98727.20
2022-09-25T01:55:06.884Z,98719.60
2022-09-25T01:58:16.097Z,98722.60
2022-09-25T02:00:51.761Z,98725.60
2022-09-25T02:03:37.992Z,98723.80
2022-09-25T02:06:12.883Z,98724.60
2022-09-25T02:08:52.411Z,98727.60
2022-09-25T02:11:20.201Z,98725.40
2022-09-25T02:13:58.945Z,98723.00
2022-09-25T02:16:37.535Z,98720.20
2022-09-25T02:19:24.717Z,98719.40
2022-09-25T02:22:11.967Z,98727.00
2022-09-25T02:25:00.689Z,98727.20
2022-09-25T02:27:29.556Z,98732.20
2022-09-25T02:30:01.533Z,98734.40
2022-09-25T02:32:32.378Z,98735.20
2022-09-25T02:35:00.930Z,98736.40
2022-09-25T02:37:29.838Z,98732.60
2022-09-25T02:40:02.097Z,98729.00
2022-09-25T02:43:03.948Z,98728.20
2022-09-25T02:46:21.052Z,98730.00
2022-09-25T02:49:07.168Z,98729.80
2022-09-25T02:51:55.535Z,98723.00
2022-09-25T02:54:31.379Z,98722.60
2022-09-25T02:57:26.989Z,98719.80
2022-09-25T03:00:03.784Z,98716.40
2022-09-25T03:02:35.365Z,98719.20
2022-09-25T03:05:06.917Z,98718.40
2022-09-25T03:07:54.596Z,98713.20
2022-09-25T03:10:23.591Z,98711.20
2022-09-25T03:12:51.116Z,98708.20
2022-09-25T03:15:20.050Z,98702.20
2022-09-25T03:17:48.242Z,98697.60
2022-09-25T03:20:16.174Z,98704.80
2022-09-25T03:22:43.737Z,98698.40
2022-09-25T03:25:11.320Z,98702.80
2022-09-25T03:27:38.843Z,98709.20
2022-09-25T03:30:07.364Z,98698.60
2022-09-25T03:32:34.974Z,98694.80
2022-09-25T03:35:02.593Z,98692.40
2022-09-25T03:37:31.212Z,98683.00
2022-09-25T03:39:59.343Z,98682.80
2022-09-25T03:42:28.364Z,98684.60
2022-09-25T03:44:55.860Z,98680.20
2022-09-25T03:47:23.519Z,98679.00
2022-09-25T03:49:50.989Z,98674.00
2022-09-25T03:52:18.966Z,98672.00
2022-09-25T03:54:46.972Z,98671.60
2022-09-25T03:57:15.013Z,98675.20
2022-09-25T03:59:42.538Z,98674.60
2022-09-25T04:02:10.763Z,98681.00
2022-09-25T04:04:38.920Z,98682.60
2022-09-25T04:07:06.441Z,98687.40
2022-09-25T04:09:34.289Z,98693.00
2022-09-25T04:12:02.171Z,98692.80
2022-09-25T04:14:30.277Z,98696.20
2022-09-25T04:16:57.852Z,98693.20
2022-09-25T04:19:25.415Z,98692.60
2022-09-25T04:21:52.977Z,98684.80
2022-09-25T04:24:39.435Z,98689.20
2022-09-25T04:27:07.987Z,98691.40
2022-09-25T04:29:35.592Z,98693.80
2022-09-25T04:32:22.541Z,98701.20
2022-09-25T04:34:50.227Z,98702.80
2022-09-25T04:37:17.779Z,98702.20
2022-09-25T04:39:45.281Z,98701.60
2022-09-25T04:42:12.892Z,98704.60
2022-09-25T04:44:40.504Z,98707.00
2022-09-25T04:47:08.069Z,98709.00
2022-09-25T04:49:38.740Z,98705.80
2022-09-25T04:52:06.492Z,98706.80
2022-09-25T04:54:34.115Z,98703.00
2022-09-25T04:57:02.847Z,98704.40
2022-09-25T04:59:30.377Z,98704.20
2022-09-25T05:01:58.052Z,98705.20
2022-09-25T05:04:25.592Z,98704.20
2022-09-25T05:06:54.435Z,98703.60
2022-09-25T05:09:21.965Z,98698.00
2022-09-25T05:11:49.717Z,98695.20
2022-09-25T05:14:17.392Z,98692.80
2022-09-25T05:16:49.918Z,98690.60
2022-09-25T05:19:17.936Z,98692.80
2022-09-25T05:21:45.496Z,98691.40
2022-09-25T05:24:13.568Z,98692.20
2022-09-25T05:26:41.641Z,98692.80
2022-09-25T05:29:10.135Z,98690.60
2022-09-25T05:31:38.399Z,98692.40
2022-09-25T05:34:05.952Z,98692.80
2022-09-25T05:36:33.512Z,98692.00
2022-09-25T05:39:01.329Z,98692.60
2022-09-25T05:41:29.644Z,98689.60
2022-09-25T05:43:58.156Z,98693.80
2022-09-25T05:46:25.717Z,98693.60
2022-09-25T05:48:53.343Z,98696.20
2022-09-25T05:51:21.251Z,98694.60
2022-09-25T05:53:49.031Z,98695.60
2022-09-25T05:56:17.356Z,98691.60
2022-09-25T05:58:45.648Z,98689.80
2022-09-25T06:01:13.940Z,98685.40
2022-09-25T06:03:41.872Z,98682.80
2022-09-25T06:06:09.472Z,98685.60
2022-09-25T06:08:37.245Z,98688.60
2022-09-25T06:11:05.938Z,98686.00
2022-09-25T06:13:34.951Z,98678.20
2022-09-25T06:16:05.620Z,98678.20
2022-09-25T06:18:34.040Z,98673.00
2022-09-25T06:21:05.397Z,98675.60
2022-09-25T06:23:33.487Z,98674.00
2022-09-25T06:26:07.046Z,98674.40
2022-09-25T06:28:36.329Z,98684.20
2022-09-25T06:31:05.671Z,98680.20
2022-09-25T06:33:33.678Z,98679.00
2022-09-25T06:36:01.627Z,98677.20
2022-09-25T06:38:29.484Z,98675.20
2022-09-25T06:41:00.592Z,98673.80
2022-09-25T06:43:30.078Z,98677.00
2022-09-25T06:46:02.950Z,98668.00
2022-09-25T06:48:31.466Z,98669.80
2022-09-25T06:51:01.025Z,98674.60
2022-09-25T06:53:28.717Z,98680.40
2022-09-25T06:56:01.774Z,98674.60
2022-09-25T06:58:30.877Z,98675.20
2022-09-25T07:00:59.101Z,98677.40
2022-09-25T07:03:45.637Z,98680.00
2022-09-25T07:06:17.309Z,98679.20
2022-09-25T07:08:48.007Z,98677.80
2022-09-25T07:11:20.175Z,98675.40
2022-09-25T07:13:49.991Z,98674.00
2022-09-25T07:16:20.138Z,98665.40
2022-09-25T07:18:47.880Z,98670.00
2022-09-25T07:21:19.160Z,98673.00
2022-09-25T07:23:49.242Z,98679.60
2022-09-25T07:26:24.860Z,98675.80
2022-09-25T07:28:55.535Z,98684.60
2022-09-25T07:31:30.020Z,98682.60
2022-09-25T07:34:02.711Z,98682.00
2022-09-25T07:36:30.236Z,98686.20
2022-09-25T07:38:57.897Z,98690.60
2022-09-25T07:41:25.637Z,98687.00
2022-09-25T07:46:46.761Z,98688.60
2022-09-25T07:49:14.503Z,98688.20
2022-09-25T07:51:42.033Z,98683.60
2022-09-25T07:54:09.624Z,98688.00
2022-09-25T07:56:38.471Z,98685.60
2022-09-25T07:59:06.583Z,98676.00
2022-09-25T08:01:38.211Z,98674.60
2022-09-25T08:04:08.701Z,98675.00
2022-09-25T08:06:38.595Z,98676.40
2022-09-25T08:09:10.367Z,98672.60
2022-09-25T08:11:38.628Z,98675.40
2022-09-25T08:14:06.300Z,98677.00
2022-09-25T08:16:33.900Z,98674.80
2022-09-25T08:19:01.536Z,98671.40
2022-09-25T08:21:29.159Z,98670.60
2022-09-25T08:23:57.083Z,98670.00
2022-09-25T08:26:25.015Z,98676.40
2022-09-25T08:28:52.756Z,98676.80
2022-09-25T08:31:21.690Z,98673.20
2022-09-25T08:33:50.690Z,98664.40
2022-09-25T08:36:19.342Z,98665.60
2022-09-25T08:38:47.314Z,98674.40
2022-09-25T08:41:21.494Z,98670.00
2022-09-25T08:45:02.471Z,98674.60
2022-09-25T08:47:49.022Z,98667.60
2022-09-25T08:50:23.729Z,98663.80
2022-09-25T08:53:06.083Z,98665.80
2022-09-25T08:55:58.753Z,98666.00
2022-09-25T08:58:31.557Z,98662.40
2022-09-25T09:01:06.040Z,98659.40
2022-09-25T09:03:52.971Z,98656.20
2022-09-25T09:06:24.653Z,98658.20
2022-09-25T09:09:07.907Z,98653.60
2022-09-25T09:11:47.484Z,98656.80
2022-09-25T09:14:21.368Z,98657.60
2022-09-25T09:17:08.055Z,98667.60
2022-09-25T09:19:35.577Z,98661.80
2022-09-25T09:22:13.080Z,98658.80
2022-09-25T09:24:49.603Z,98652.00
2022-09-25T09:28:00.655Z,98648.80
2022-09-25T09:30:44.794Z,98645.40
2022-09-25T09:33:34.288Z,98638.00
2022-09-25T09:36:55.079Z,98637.40
2022-09-25T09:39:58.093Z,98639.00
2022-09-25T09:43:13.759Z,98645.00
2022-09-25T09:45:59.109Z,98645.20
2022-09-25T09:48:33.381Z,98640.00
2022-09-25T09:51:11.013Z,98632.40
2022-09-25T09:53:50.157Z,98629.60
2022-09-25T09:56:25.494Z,98633.00
2022-09-25T09:59:01.704Z,98636.40
2022-09-25T10:01:42.031Z,98629.80
2022-09-25T10:04:22.574Z,98632.00
2022-09-25T10:07:04.656Z,98631.20
2022-09-25T10:09:32.437Z,98624.00
2022-09-25T10:12:32.898Z,98617.80
2022-09-25T10:15:13.440Z,98613.40
2022-09-25T10:17:43.012Z,98608.00
2022-09-25T10:20:21.808Z,98596.80
2022-09-25T10:22:56.532Z,98599.20
2022-09-25T10:25:39.444Z,98596.40
2022-09-25T10:28:36.905Z,98593.80
2022-09-25T10:31:09.378Z,98590.20
2022-09-25T10:33:37.771Z,98591.00
2022-09-25T10:36:06.921Z,98589.40
2022-09-25T10:39:04.958Z,98583.20
2022-09-25T10:41:43.841Z,98581.40
2022-09-25T10:44:33.318Z,98587.00
2022-09-25T10:47:38.077Z,98585.20
2022-09-25T10:50:23.756Z,98581.80
2022-09-25T10:52:59.816Z,98579.20
2022-09-25T10:55:32.837Z,98572.20
2022-09-25T10:58:22.807Z,98564.80
2022-09-25T11:00:51.045Z,98559.60
2022-09-25T11:03:53.636Z,98563.40
2022-09-25T11:06:34.702Z,98561.20
2022-09-25T11:09:16.505Z,98561.60
2022-09-25T11:11:47.064Z,98556.80
2022-09-25T11:14:33.424Z,98554.80
2022-09-25T11:17:10.131Z,98547.00
2022-09-25T11:19:38.933Z,98542.80
2022-09-25T11:22:37.738Z,98538.00
2022-09-25T11:25:15.857Z,98541.60
2022-09-25T11:28:21.614Z,98541.00
2022-09-25T11:31:03.005Z,98539.20
2022-09-25T11:33:56.121Z,98539.00
2022-09-25T11:36:56.812Z,98533.40
2022-09-25T11:40:03.923Z,98536.80
2022-09-25T11:42:46.539Z,98545.20
2022-09-25T11:45:30.496Z,98545.60
2022-09-25T11:48:23.274Z,98542.60
2022-09-25T11:51:07.832Z,98544.80
2022-09-25T11:54:17.849Z,98549.20
2022-09-25T11:57:06.549Z,98545.40
2022-09-25T11:59:53.766Z,98549.60
2022-09-25T12:02:45.198Z,98544.20
2022-09-25T12:05:59.325Z,98533.40
2022-09-25T12:09:30.335Z,98515.40
2022-09-25T12:12:29.155Z,98505.00
2022-09-25T12:15:17.826Z,98502.00
2022-09-25T12:18:07.804Z,98498.80
2022-09-25T12:20:51.161Z,98491.20
2022-09-25T12:23:32.184Z,98487.20
2022-09-25T12:26:24.386Z,98480.80
2022-09-25T12:29:08.035Z,98479.60
2022-09-25T12:31:59.782Z,98481.20
2022-09-25T12:35:11.114Z,98483.40
2022-09-25T12:37:53.186Z,98485.80
2022-09-25T12:40:57.528Z,98486.60
2022-09-25T12:43:36.633Z,98487.60
2022-09-25T12:46:24.890Z,98485.60
2022-09-25T12:49:11.689Z,98481.60
2022-09-25T12:51:46.955Z,98476.40
2022-09-25T12:54:17.500Z,98472.00
2022-09-25T12:57:14.055Z,98471.20
2022-09-25T12:59:57.751Z,98473.00
2022-09-25T13:02:54.577Z,98469.00
2022-09-25T13:05:42.389Z,98474.20
2022-09-25T13:08:39.696Z,98466.60
2022-09-25T13:11:19.099Z,98463.60
2022-09-25T13:13:53.651Z,98460.20
2022-09-25T13:16:22.505Z,98459.20
2022-09-25T13:19:12.536Z,98462.20
2022-09-25T13:21:43.390Z,98465.40
2022-09-25T13:24:18.201Z,98465.00
2022-09-25T13:26:55.666Z,98470.00
2022-09-25T13:29:29.005Z,98470.00
2022-09-25T13:32:13.209Z,98469.40
2022-09-25T13:34:42.294Z,98466.60
2022-09-25T13:37:13.309Z,98472.80
2022-09-25T13:40:05.454Z,98471.80
2022-09-25T13:42:42.147Z,98469.60
2022-09-25T13:45:21.675Z,98472.60
2022-09-25T13:48:07.866Z,98467.20
2022-09-25T13:50:47.775Z,98461.00
2022-09-25T13:53:22.849Z,98460.20
2022-09-25T13:55:50.323Z,98458.80
2022-09-25T13:58:20.337Z,98456.00
2022-09-25T14:00:55.943Z,98462.60
2022-09-25T14:03:46.402Z,98466.60
2022-09-25T14:06:24.056Z,98458.60
2022-09-25T14:08:56.851Z,98452.00
2022-09-25T14:11:32.354Z,98450.40
2022-09-25T14:14:05.283Z,98449.20
2022-09-25T14:16:46.608Z,98451.60
2022-09-25T14:19:25.208Z,98453.00
2022-09-25T14:21:53.201Z,98453.40
2022-09-25T14:24:29.045Z,98455.80
2022-09-25T14:27:03.884Z,98457.60
2022-09-25T14:29:40.425Z,98454.20
2022-09-25T14:32:55.566Z,98446.60
2022-09-25T14:36:06.007Z,98446.60
2022-09-25T14:38:51.420Z,98439.00
2022-09-25T14:42:01.694Z,98437.00
2022-09-25T14:45:09.183Z,98440.60
2022-09-25T14:47:45.079Z,98440.20
2022-09-25T14:50:25.329Z,98439.60
2022-09-25T14:52:58.901Z,98432.60
2022-09-25T14:55:35.592Z,98435.00
2022-09-25T14:58:09.284Z,98432.20
2022-09-25T15:00:46.925Z,98432.20
2022-09-25T15:03:19.162Z,98432.40
2022-09-25T15:05:50.038Z,98423.00
2022-09-25T15:08:38.306Z,98427.20
2022-09-25T15:11:14.936Z,98422.40
2022-09-25T15:13:44.499Z,98420.80
2022-09-25T15:16:40.458Z,98421.20
2022-09-25T15:19:25.633Z,98413.60
2022-09-25T15:21:54.201Z,98404.80
2022-09-25T15:24:27.824Z,98405.80
2022-09-25T15:27:05.051Z,98404.60
2022-09-25T15:29:38.602Z,98400.80
2022-09-25T15:32:06.463Z,98393.40
2022-09-25T15:34:34.534Z,98397.20
2022-09-25T15:37:30.989Z,98406.40
2022-09-25T15:40:18.143Z,98413.20
2022-09-25T15:42:48.534Z,98412.00
2022-09-25T15:45:49.537Z,98409.20
2022-09-25T15:48:29.974Z,98402.00
2022-09-25T15:51:04.432Z,98399.40
2022-09-25T15:53:44.338Z,98403.00
2022-09-25T15:56:25.344Z,98400.60
2022-09-25T15:59:15.183Z,98403.80
2022-09-25T16:02:02.470Z,98403.20
2022-09-25T16:04:49.121Z,98399.00
2022-09-25T16:07:47.662Z,98396.20
2022-09-25T16:10:18.108Z,98394.60
2022-09-25T16:12:49.423Z,98394.60
2022-09-25T16:15:27.368Z,98398.20
2022-09-25T16:18:05.782Z,98401.60
2022-09-25T16:20:40.388Z,98401.60
2022-09-25T16:23:29.871Z,98402.40
2022-09-25T16:26:00.181Z,98400.80
2022-09-25T16:28:31.904Z,98398.00
2022-09-25T16:31:08.072Z,98398.40
2022-09-25T16:33:40.074Z,98399.20
2022-09-25T16:36:17.521Z,98391.60
2022-09-25T16:39:07.397Z,98397.00
2022-09-25T16:41:37.526Z,98397.80
2022-09-25T16:44:38.531Z,98398.60
2022-09-25T16:47:14.468Z,98396.00
2022-09-25T16:49:43.708Z,98393.80
2022-09-25T16:52:23.587Z,98393.40
2022-09-25T16:54:54.607Z,98399.20
2022-09-25T16:57:27.856Z,98399.60
2022-09-25T16:59:55.656Z,98403.20
2022-09-25T17:02:35.246Z,98407.40
2022-09-25T17:05:33.391Z,98406.80
2022-09-25T17:08:18.012Z,98410.40
2022-09-25T17:10:50.884Z,98406.40
2022-09-25T17:13:27.929Z,98404.20
2022-09-25T17:15:57.435Z,98410.20
2022-09-25T17:18:25.568Z,98408.40
2022-09-25T17:20:56.251Z,98410.20
2022-09-25T17:23:26.048Z,98409.80
2022-09-25T17:26:12.571Z,98408.20
2022-09-25T17:28:40.140Z,98408.80
2022-09-25T17:31:15.756Z,98412.40
2022-09-25T17:33:43.342Z,98410.40
2022-09-25T17:36:12.964Z,98411.20
2022-09-25T17:38:40.585Z,98413.60
2022-09-25T17:41:33.076Z,98414.60
2022-09-25T17:44:03.379Z,98413.20
2022-09-25T17:46:34.622Z,98415.60
2022-09-25T17:49:03.613Z,98415.80
2022-09-25T17:51:31.391Z,98419.80
2022-09-25T17:54:02.138Z,98420.80
2022-09-25T17:56:29.767Z,98415.00
2022-09-25T17:58:58.053Z,98416.20
2022-09-25T18:01:29.585Z,98417.60
2022-09-25T18:04:06.888Z,98418.40
2022-09-25T18:06:34.484Z,98418.40
2022-09-25T18:09:02.008Z,98417.80
2022-09-25T18:11:30.214Z,98422.60
2022-09-25T18:14:01.333Z,98422.20
2022-09-25T18:16:32.145Z,98415.00
2022-09-25T18:19:18.569Z,98417.60
2022-09-25T18:22:04.807Z,98415.60
2022-09-25T18:24:32.370Z,98415.00
2022-09-25T18:27:00.296Z,98412.20
2022-09-25T18:29:27.878Z,98404.80
2022-09-25T18:31:55.799Z,98404.00
2022-09-25T18:34:26.154Z,98408.80
2022-09-25T18:36:54.149Z,98407.80
2022-09-25T18:39:22.084Z,98407.60
2022-09-25T18:41:50.560Z,98401.60
2022-09-25T18:44:19.537Z,98402.80
2022-09-25T18:46:47.403Z,98407.00
2022-09-25T18:49:15.552Z,98409.20
2022-09-25T18:51:43.364Z,98409.60
2022-09-25T18:54:15.324Z,98414.60
2022-09-25T18:56:43.416Z,98412.80
2022-09-25T18:59:11.191Z,98412.20
2022-09-25T19:01:40.152Z,98411.80
2022-09-25T19:04:08.420Z,98414.00
2022-09-25T19:06:36.025Z,98411.20
2022-09-25T19:09:05.098Z,98408.00
2022-09-25T19:11:33.019Z,98407.00
2022-09-25T19:14:04.763Z,98408.00
2022-09-25T19:16:38.093Z,98413.60
2022-09-25T19:19:06.212Z,98415.40
2022-09-25T19:21:34.220Z,98410.00
2022-09-25T19:24:02.685Z,98411.20
2022-09-25T19:26:31.046Z,98408.80
2022-09-25T19:29:00.975Z,98412.60
2022-09-25T19:31:29.797Z,98403.80
2022-09-25T19:33:58.169Z,98403.40
2022-09-25T19:36:30.703Z,98403.40
2022-09-25T19:39:00.371Z,98408.20
2022-09-25T19:41:34.030Z,98405.40
2022-09-25T19:44:12.762Z,98407.00
2022-09-25T19:46:46.459Z,98405.00
2022-09-25T19:49:17.056Z,98403.20
2022-09-25T19:51:45.405Z,98400.60
2022-09-25T19:54:15.327Z,98400.80
2022-09-25T19:56:43.313Z,98399.00
2022-09-25T19:59:15.958Z,98397.80
2022-09-25T20:01:44.875Z,98398.80
2022-09-25T20:04:18.303Z,98394.00
2022-09-25T20:06:48.589Z,98387.40
2022-09-25T20:09:16.480Z,98388.20
2022-09-25T20:11:44.650Z,98390.60
2022-09-25T20:14:13.127Z,98393.00
2022-09-25T20:16:40.909Z,98388.20
2022-09-25T20:19:09.070Z,98386.00
2022-09-25T20:21:41.377Z,98384.60
2022-09-25T20:24:09.621Z,98386.60
2022-09-25T20:26:39.137Z,98387.00
2022-09-25T20:29:12.123Z,98387.00
2022-09-25T20:31:43.769Z,98384.20
2022-09-25T20:34:18.247Z,98382.40
2022-09-25T20:36:46.630Z,98385.40
2022-09-25T20:39:20.550Z,98378.80
2022-09-25T20:41:50.397Z,98374.60
2022-09-25T20:44:17.967Z,98375.60
2022-09-25T20:46:45.632Z,98376.60
2022-09-25T20:49:13.323Z,98369.40
2022-09-25T20:51:41.265Z,98370.40
2022-09-25T20:54:10.446Z,98375.20
2022-09-25T20:56:43.915Z,98375.40
2022-09-25T20:59:12.625Z,98369.00
2022-09-25T21:01:41.586Z,98367.80
2022-09-25T21:04:09.982Z,98366.20
2022-09-25T21:06:40.864Z,98358.00
2022-09-25T21:09:21.649Z,98361.60
2022-09-25T21:11:50.019Z,98358.80
2022-09-25T21:14:28.001Z,98356.40
2022-09-25T21:16:59.087Z,98354.60
2022-09-25T21:19:28.055Z,98351.40
2022-09-25T21:21:55.884Z,98348.20
2022-09-25T21:24:23.524Z,98353.20
2022-09-25T21:26:51.289Z,98354.20
2022-09-25T21:29:19.159Z,98343.40
2022-09-25T21:31:50.174Z,98346.40
2022-09-25T21:34:19.856Z,98341.60
2022-09-25T21:36:48.474Z,98337.60
2022-09-25T21:39:16.364Z,98339.60
2022-09-25T21:41:44.294Z,98335.40
2022-09-25T21:44:15.171Z,98333.20
2022-09-25T21:46:43.951Z,98325.00
2022-09-25T21:49:20.925Z,98326.40
2022-09-25T21:51:49.767Z,98322.00
2022-09-25T21:54:18.598Z,98319.40
2022-09-25T21:56:49.090Z,98321.00
2022-09-25T21:59:17.864Z,98321.40
2022-09-25T22:01:45.948Z,98323.40
2022-09-25T22:04:14.961Z,98313.40
2022-09-25T22:06:47.375Z,98312.60
2022-09-25T22:09:19.994Z,98312.00
2022-09-25T22:11:49.066Z,98315.80
2022-09-25T22:14:19.996Z,98315.00
2022-09-25T22:16:51.354Z,98312.20
2022-09-25T22:19:26.989Z,98316.40
2022-09-25T22:21:57.643Z,98315.60
2022-09-25T22:24:26.121Z,98323.80
2022-09-25T22:26:55.805Z,98319.40
2022-09-25T22:29:24.649Z,98325.40
2022-09-25T22:31:52.606Z,98320.80
2022-09-25T22:34:28.307Z,98320.00
2022-09-25T22:36:59.930Z,98323.00
2022-09-25T22:39:29.641Z,98318.80
2022-09-25T22:41:57.872Z,98315.40
2022-09-25T22:44:26.108Z,98309.80
2022-09-25T22:46:53.771Z,98307.80
2022-09-25T22:49:21.318Z,98305.40
2022-09-25T22:51:48.927Z,98305.60
2022-09-25T22:54:16.819Z,98307.40
2022-09-25T22:56:44.629Z,98305.40
2022-09-25T22:59:18.218Z,98303.00
2022-09-25T23:01:54.496Z,98299.20
2022-09-25T23:04:24.756Z,98294.00
2022-09-25T23:06:52.481Z,98299.00
2022-09-25T23:09:27.038Z,98300.40
2022-09-25T23:11:56.616Z,98304.80
2022-09-25T23:14:30.046Z,98300.40
2022-09-25T23:17:00.508Z,98301.80
2022-09-25T23:19:28.245Z,98300.80
2022-09-25T23:21:56.248Z,98300.40
2022-09-25T23:24:25.211Z,98302.60
2022-09-25T23:26:54.234Z,98294.60
2022-09-25T23:29:22.382Z,98295.80
2022-09-25T23:31:52.058Z,98294.20
2022-09-25T23:34:20.066Z,98289.40
2022-09-25T23:36:47.731Z,98283.80
2022-09-25T23:39:18.981Z,98284.80
2022-09-25T23:41:48.056Z,98289.00
2022-09-25T23:44:16.319Z,98280.00
2022-09-25T23:46:44.374Z,98272.40
2022-09-25T23:49:13.520Z,98269.60
2022-09-25T23:51:41.544Z,98271.60
2022-09-25T23:54:11.008Z,98268.00
2022-09-25T23:56:39.145Z,98271.80
2022-09-25T23:59:07.067Z,98270.20
